sensor_id;sensor_type;location;lat;lon;timestamp;pressure;altitude;pressure_sealevel;temperature
51149;BMP280;37210;50.058;8.688;2022-10-14T00:01:17;100330.72;;;15.26
51149;BMP280;37210;50.058;8.688;2022-10-14T00:03:48;100335.88;;;15.32
51149;BMP280;37210;50.058;8.688;2022-10-14T00:06:23;100329.09;;;15.17
51149;BMP280;37210;50.058;8.688;2022-10-14T00:08:52;100341.13;;;15.32
51149;BMP280;37210;50.058;8.688;2022-10-14T00:11:23;100321.84;;;15.30
51149;BMP280;37210;50.058;8.688;2022-10-14T00:13:53;100333.19;;;15.35
51149;BMP280;37210;50.058;8.688;2022-10-14T00:16:24;100332.34;;;15.33
51149;BMP280;37210;50.058;8.688;2022-10-14T00:18:56;100333.28;;;15.31
51149;BMP280;37210;50.058;8.688;2022-10-14T00:21:25;100313.25;;;15.19
51149;BMP280;37210;50.058;8.688;2022-10-14T00:23:54;100312.38;;;15.20
51149;BMP280;37210;50.058;8.688;2022-10-14T00:26:25;100332.31;;;15.35
51149;BMP280;37210;50.058;8.688;2022-10-14T00:28:57;100313.16;;;15.25
51149;BMP280;37210;50.058;8.688;2022-10-14T00:31:31;100332.41;;;15.30
51149;BMP280;37210;50.058;8.688;2022-10-14T00:34:01;100338.53;;;15.31
51149;BMP280;37210;50.058;8.688;2022-10-14T00:36:28;100335.78;;;15.37
51149;BMP280;37210;50.058;8.688;2022-10-14T00:38:56;100340.16;;;15.39
51149;BMP280;37210;50.058;8.688;2022-10-14T00:41:25;100339.22;;;15.43
51149;BMP280;37210;50.058;8.688;2022-10-14T00:43:58;100338.34;;;15.43
51149;BMP280;37210;50.058;8.688;2022-10-14T00:46:28;100327.09;;;15.33
51149;BMP280;37210;50.058;8.688;2022-10-14T00:49:05;100340.94;;;15.44
51149;BMP280;37210;50.058;8.688;2022-10-14T00:51:37;100343.69;;;15.37
51149;BMP280;37210;50.058;8.688;2022-10-14T00:54:07;100334.91;;;15.36
51149;BMP280;37210;50.058;8.688;2022-10-14T00:56:36;100330.38;;;15.47
51149;BMP280;37210;50.058;8.688;2022-10-14T00:59:09;100326.06;;;15.43
51149;BMP280;37210;50.058;8.688;2022-10-14T01:01:38;100333.88;;;15.46
51149;BMP280;37210;50.058;8.688;2022-10-14T01:04:07;100327.94;;;15.34
51149;BMP280;37210;50.058;8.688;2022-10-14T01:06:40;100329.44;;;15.50
51149;BMP280;37210;50.058;8.688;2022-10-14T01:09:20;100324.59;;;15.24
51149;BMP280;37210;50.058;8.688;2022-10-14T01:12:02;100335.19;;;15.23
51149;BMP280;37210;50.058;8.688;2022-10-14T01:14:45;100330.56;;;15.35
51149;BMP280;37210;50.058;8.688;2022-10-14T01:17:31;100269.50;;;15.10
51149;BMP280;37210;50.058;8.688;2022-10-14T01:20:50;100317.69;;;15.17
51149;BMP280;37210;50.058;8.688;2022-10-14T01:23:37;100327.94;;;15.34
51149;BMP280;37210;50.058;8.688;2022-10-14T01:26:42;100312.19;;;15.29
51149;BMP280;37210;50.058;8.688;2022-10-14T01:29:54;100320.03;;;15.34
51149;BMP280;37210;50.058;8.688;2022-10-14T01:32:29;100302.34;;;15.40
51149;BMP280;37210;50.058;8.688;2022-10-14T01:35:05;100313.78;;;15.39
51149;BMP280;37210;50.058;8.688;2022-10-14T01:37:46;100313.75;;;15.41
51149;BMP280;37210;50.058;8.688;2022-10-14T01:40:25;100299.91;;;15.30
51149;BMP280;37210;50.058;8.688;2022-10-14T01:43:02;100290.16;;;15.35
51149;BMP280;37210;50.058;8.688;2022-10-14T01:45:35;100292.41;;;15.54
51149;BMP280;37210;50.058;8.688;2022-10-14T01:48:07;100275.25;;;15.32
51149;BMP280;37210;50.058;8.688;2022-10-14T01:50:37;100292.53;;;15.48
51149;BMP280;37210;50.058;8.688;2022-10-14T01:53:11;100286.72;;;15.30
51149;BMP280;37210;50.058;8.688;2022-10-14T01:55:45;100281.19;;;15.45
51149;BMP280;37210;50.058;8.688;2022-10-14T01:58:18;100272.53;;;15.37
51149;BMP280;37210;50.058;8.688;2022-10-14T02:00:52;100254.41;;;15.20
51149;BMP280;37210;50.058;8.688;2022-10-14T02:03:20;100271.06;;;15.22
51149;BMP280;37210;50.058;8.688;2022-10-14T02:05:52;100283.91;;;15.39
51149;BMP280;37210;50.058;8.688;2022-10-14T02:08:32;100258.84;;;15.16
51149;BMP280;37210;50.058;8.688;2022-10-14T02:11:10;100274.19;;;15.44
51149;BMP280;37210;50.058;8.688;2022-10-14T02:14:01;100273.13;;;15.52
51149;BMP280;37210;50.058;8.688;2022-10-14T02:16:39;100270.44;;;15.55
51149;BMP280;37210;50.058;8.688;2022-10-14T02:19:23;100253.09;;;15.42
51149;BMP280;37210;50.058;8.688;2022-10-14T02:22:00;100260.16;;;15.40
51149;BMP280;37210;50.058;8.688;2022-10-14T02:24:33;100246.06;;;15.44
51149;BMP280;37210;50.058;8.688;2022-10-14T02:27:08;100255.72;;;15.42
51149;BMP280;37210;50.058;8.688;2022-10-14T02:29:41;100256.44;;;15.53
51149;BMP280;37210;50.058;8.688;2022-10-14T02:32:14;100206.78;;;15.31
51149;BMP280;37210;50.058;8.688;2022-10-14T02:34:48;100195.59;;;15.16
51149;BMP280;37210;50.058;8.688;2022-10-14T02:37:20;100219.06;;;15.30
51149;BMP280;37210;50.058;8.688;2022-10-14T02:39:55;100195.22;;;15.36
51149;BMP280;37210;50.058;8.688;2022-10-14T02:42:26;100230.09;;;15.52
51149;BMP280;37210;50.058;8.688;2022-10-14T02:44:58;100237.81;;;15.61
51149;BMP280;37210;50.058;8.688;2022-10-14T02:47:31;100209.97;;;15.48
51149;BMP280;37210;50.058;8.688;2022-10-14T02:49:58;100235.31;;;15.55
51149;BMP280;37210;50.058;8.688;2022-10-14T02:52:26;100243.16;;;15.58
51149;BMP280;37210;50.058;8.688;2022-10-14T02:54:54;100221.31;;;15.51
51149;BMP280;37210;50.058;8.688;2022-10-14T02:57:24;100219.53;;;15.53
51149;BMP280;37210;50.058;8.688;2022-10-14T02:59:58;100169.84;;;15.32
51149;BMP280;37210;50.058;8.688;2022-10-14T03:02:27;100209.16;;;15.46
51149;BMP280;37210;50.058;8.688;2022-10-14T03:04:58;100213.34;;;15.54
51149;BMP280;37210;50.058;8.688;2022-10-14T03:07:25;100220.31;;;15.57
51149;BMP280;37210;50.058;8.688;2022-10-14T03:09:55;99999.84;;;14.27
51149;BMP280;37210;50.058;8.688;2022-10-14T03:12:24;100218.72;;;15.50
51149;BMP280;37210;50.058;8.688;2022-10-14T03:14:54;100213.56;;;15.42
51149;BMP280;37210;50.058;8.688;2022-10-14T03:17:28;100213.44;;;15.50
51149;BMP280;37210;50.058;8.688;2022-10-14T03:20:07;100211.69;;;15.49
51149;BMP280;37210;50.058;8.688;2022-10-14T03:22:47;100209.31;;;15.35
51149;BMP280;37210;50.058;8.688;2022-10-14T03:25:17;100210.00;;;15.46
51149;BMP280;37210;50.058;8.688;2022-10-14T03:27:56;100207.31;;;15.49
51149;BMP280;37210;50.058;8.688;2022-10-14T03:30:38;100202.81;;;15.53
51149;BMP280;37210;50.058;8.688;2022-10-14T03:33:13;100189.16;;;15.33
51149;BMP280;37210;50.058;8.688;2022-10-14T03:35:52;100199.53;;;15.43
51149;BMP280;37210;50.058;8.688;2022-10-14T03:38:32;100181.06;;;15.43
51149;BMP280;37210;50.058;8.688;2022-10-14T03:41:01;100202.91;;;15.50
51149;BMP280;37210;50.058;8.688;2022-10-14T03:43:29;100210.91;;;15.45
51149;BMP280;37210;50.058;8.688;2022-10-14T03:46:01;100138.69;;;15.09
51149;BMP280;37210;50.058;8.688;2022-10-14T03:48:29;100108.31;;;14.92
51149;BMP280;37210;50.058;8.688;2022-10-14T03:50:59;100205.56;;;15.48
51149;BMP280;37210;50.058;8.688;2022-10-14T03:53:29;100176.00;;;15.31
51149;BMP280;37210;50.058;8.688;2022-10-14T03:55:57;100192.44;;;15.45
51149;BMP280;37210;50.058;8.688;2022-10-14T03:58:25;100158.56;;;15.26
51149;BMP280;37210;50.058;8.688;2022-10-14T04:01:00;100101.22;;;14.95
51149;BMP280;37210;50.058;8.688;2022-10-14T04:03:36;100183.50;;;15.52
51149;BMP280;37210;50.058;8.688;2022-10-14T04:06:07;100189.69;;;15.51
51149;BMP280;37210;50.058;8.688;2022-10-14T04:08:35;100186.00;;;15.60
51149;BMP280;37210;50.058;8.688;2022-10-14T04:11:16;100184.28;;;15.57
51149;BMP280;37210;50.058;8.688;2022-10-14T04:13:46;100153.38;;;15.23
51149;BMP280;37210;50.058;8.688;2022-10-14T04:16:15;100158.41;;;15.33
51149;BMP280;37210;50.058;8.688;2022-10-14T04:18:57;100193.25;;;15.49
51149;BMP280;37210;50.058;8.688;2022-10-14T04:21:26;100176.00;;;15.33
51149;BMP280;37210;50.058;8.688;2022-10-14T04:23:56;100157.88;;;15.14
51149;BMP280;37210;50.058;8.688;2022-10-14T04:26:37;100211.84;;;15.40
51149;BMP280;37210;50.058;8.688;2022-10-14T04:29:11;100167.38;;;15.25
51149;BMP280;37210;50.058;8.688;2022-10-14T04:31:49;100180.81;;;15.55
51149;BMP280;37210;50.058;8.688;2022-10-14T04:34:19;100182.63;;;15.53
51149;BMP280;37210;50.058;8.688;2022-10-14T04:36:48;100139.50;;;15.13
51149;BMP280;37210;50.058;8.688;2022-10-14T04:39:33;100058.97;;;14.57
51149;BMP280;37210;50.058;8.688;2022-10-14T04:42:01;100168.00;;;15.37
51149;BMP280;37210;50.058;8.688;2022-10-14T04:44:33;100180.19;;;15.43
51149;BMP280;37210;50.058;8.688;2022-10-14T04:47:02;100158.97;;;15.49
51149;BMP280;37210;50.058;8.688;2022-10-14T04:49:30;100155.66;;;15.38
51149;BMP280;37210;50.058;8.688;2022-10-14T04:52:09;100150.50;;;15.32
51149;BMP280;37210;50.058;8.688;2022-10-14T04:54:43;100101.09;;;15.00
51149;BMP280;37210;50.058;8.688;2022-10-14T04:57:14;100172.25;;;15.46
51149;BMP280;37210;50.058;8.688;2022-10-14T04:59:46;100074.06;;;14.92
51149;BMP280;37210;50.058;8.688;2022-10-14T05:02:20;100159.22;;;15.37
51149;BMP280;37210;50.058;8.688;2022-10-14T05:04:57;100169.84;;;15.32
51149;BMP280;37210;50.058;8.688;2022-10-14T05:07:28;100107.25;;;15.00
51149;BMP280;37210;50.058;8.688;2022-10-14T05:10:07;100162.78;;;15.34
51149;BMP280;37210;50.058;8.688;2022-10-14T05:12:40;100039.59;;;14.61
51149;BMP280;37210;50.058;8.688;2022-10-14T05:15:08;100154.16;;;15.26
51149;BMP280;37210;50.058;8.688;2022-10-14T05:17:46;100147.88;;;15.33
51149;BMP280;37210;50.058;8.688;2022-10-14T05:20:18;100145.00;;;15.45
51149;BMP280;37210;50.058;8.688;2022-10-14T05:22:58;100145.94;;;15.40
51149;BMP280;37210;50.058;8.688;2022-10-14T05:25:27;100121.63;;;15.27
51149;BMP280;37210;50.058;8.688;2022-10-14T05:27:55;100148.72;;;15.35
51149;BMP280;37210;50.058;8.688;2022-10-14T05:30:23;100132.16;;;15.27
51149;BMP280;37210;50.058;8.688;2022-10-14T05:32:52;100091.53;;;14.97
51149;BMP280;37210;50.058;8.688;2022-10-14T05:35:22;100032.19;;;14.80
51149;BMP280;37210;50.058;8.688;2022-10-14T05:37:55;100118.84;;;15.35
51149;BMP280;37210;50.058;8.688;2022-10-14T05:40:23;100144.09;;;15.46
51149;BMP280;37210;50.058;8.688;2022-10-14T05:42:52;100142.38;;;15.42
51149;BMP280;37210;50.058;8.688;2022-10-14T05:45:21;100142.53;;;15.36
51149;BMP280;37210;50.058;8.688;2022-10-14T05:47:52;100098.03;;;15.23
51149;BMP280;37210;50.058;8.688;2022-10-14T05:50:24;100125.69;;;15.42
51149;BMP280;37210;50.058;8.688;2022-10-14T05:52:57;100143.25;;;15.44
51149;BMP280;37210;50.058;8.688;2022-10-14T05:55:32;100137.88;;;15.49
51149;BMP280;37210;50.058;8.688;2022-10-14T05:58:02;100137.72;;;15.58
51149;BMP280;37210;50.058;8.688;2022-10-14T06:00:35;100134.06;;;15.63
51149;BMP280;37210;50.058;8.688;2022-10-14T06:03:09;100141.53;;;15.43
51149;BMP280;37210;50.058;8.688;2022-10-14T06:05:44;100127.03;;;15.64
51149;BMP280;37210;50.058;8.688;2022-10-14T06:08:18;100121.81;;;15.61
51149;BMP280;37210;50.058;8.688;2022-10-14T06:10:56;100123.44;;;15.66
51149;BMP280;37210;50.058;8.688;2022-10-14T06:13:27;100128.72;;;15.65
51149;BMP280;37210;50.058;8.688;2022-10-14T06:15:55;100124.63;;;15.53
51149;BMP280;37210;50.058;8.688;2022-10-14T06:18:23;100129.06;;;15.51
51149;BMP280;37210;50.058;8.688;2022-10-14T06:20:53;100105.28;;;15.53
51149;BMP280;37210;50.058;8.688;2022-10-14T06:23:26;100107.22;;;15.45
51149;BMP280;37210;50.058;8.688;2022-10-14T06:25:55;100101.06;;;15.46
51149;BMP280;37210;50.058;8.688;2022-10-14T06:28:23;100115.69;;;15.59
51149;BMP280;37210;50.058;8.688;2022-10-14T06:30:51;100005.69;;;14.89
51149;BMP280;37210;50.058;8.688;2022-10-14T06:33:20;100117.53;;;15.55
51149;BMP280;37210;50.058;8.688;2022-10-14T06:35:49;100061.94;;;15.26
51149;BMP280;37210;50.058;8.688;2022-10-14T06:38:17;100126.84;;;15.71
51149;BMP280;37210;50.058;8.688;2022-10-14T06:40:49;100120.47;;;15.40
51149;BMP280;37210;50.058;8.688;2022-10-14T06:43:21;100091.47;;;15.43
51149;BMP280;37210;50.058;8.688;2022-10-14T06:45:49;100091.47;;;15.43
51149;BMP280;37210;50.058;8.688;2022-10-14T06:48:18;100124.06;;;15.77
51149;BMP280;37210;50.058;8.688;2022-10-14T06:50:48;100138.22;;;15.73
51149;BMP280;37210;50.058;8.688;2022-10-14T06:53:16;100129.06;;;15.89
51149;BMP280;37210;50.058;8.688;2022-10-14T06:55:45;100132.38;;;15.97
51149;BMP280;37210;50.058;8.688;2022-10-14T06:58:15;100137.84;;;15.90
51149;BMP280;37210;50.058;8.688;2022-10-14T07:00:43;100078.84;;;15.57
51149;BMP280;37210;50.058;8.688;2022-10-14T07:03:11;100079.91;;;15.49
51149;BMP280;37210;50.058;8.688;2022-10-14T07:05:39;100139.72;;;15.85
51149;BMP280;37210;50.058;8.688;2022-10-14T07:08:13;100129.97;;;15.88
51149;BMP280;37210;50.058;8.688;2022-10-14T07:10:41;100133.81;;;15.74
51149;BMP280;37210;50.058;8.688;2022-10-14T07:13:11;100087.91;;;15.44
51149;BMP280;37210;50.058;8.688;2022-10-14T07:15:39;100124.19;;;15.71
51149;BMP280;37210;50.058;8.688;2022-10-14T07:18:10;100111.84;;;15.75
51149;BMP280;37210;50.058;8.688;2022-10-14T07:20:38;100125.56;;;15.89
51149;BMP280;37210;50.058;8.688;2022-10-14T07:23:06;100126.31;;;15.94
51149;BMP280;37210;50.058;8.688;2022-10-14T07:26:00;100127.38;;;15.87
51149;BMP280;37210;50.058;8.688;2022-10-14T07:28:31;100121.41;;;15.77
51149;BMP280;37210;50.058;8.688;2022-10-14T07:31:00;100120.28;;;15.87
51149;BMP280;37210;50.058;8.688;2022-10-14T07:33:30;100122.00;;;15.91
51149;BMP280;37210;50.058;8.688;2022-10-14T07:35:59;100120.81;;;16.03
51149;BMP280;37210;50.058;8.688;2022-10-14T07:38:30;100115.69;;;15.97
51149;BMP280;37210;50.058;8.688;2022-10-14T07:41:00;100124.28;;;16.05
51149;BMP280;37210;50.058;8.688;2022-10-14T07:43:32;100125.78;;;16.15
51149;BMP280;37210;50.058;8.688;2022-10-14T07:46:02;100109.72;;;15.89
51149;BMP280;37210;50.058;8.688;2022-10-14T07:48:37;100083.31;;;15.90
51149;BMP280;37210;50.058;8.688;2022-10-14T07:51:11;100129.50;;;16.08
51149;BMP280;37210;50.058;8.688;2022-10-14T07:53:45;100124.75;;;16.22
51149;BMP280;37210;50.058;8.688;2022-10-14T07:56:16;100119.94;;;16.02
51149;BMP280;37210;50.058;8.688;2022-10-14T07:58:46;100111.03;;;16.07
51149;BMP280;37210;50.058;8.688;2022-10-14T08:01:15;100078.81;;;15.94
51149;BMP280;37210;50.058;8.688;2022-10-14T08:03:45;100127.38;;;16.22
51149;BMP280;37210;50.058;8.688;2022-10-14T08:06:19;100103.44;;;15.94
51149;BMP280;37210;50.058;8.688;2022-10-14T08:08:49;100129.88;;;16.28
51149;BMP280;37210;50.058;8.688;2022-10-14T08:11:22;100133.59;;;16.20
51149;BMP280;37210;50.058;8.688;2022-10-14T08:13:58;100129.88;;;16.28
51149;BMP280;37210;50.058;8.688;2022-10-14T08:16:30;100101.53;;;16.01
51149;BMP280;37210;50.058;8.688;2022-10-14T08:19:02;100120.13;;;16.30
51149;BMP280;37210;50.058;8.688;2022-10-14T08:21:32;100104.50;;;16.23
51149;BMP280;37210;50.058;8.688;2022-10-14T08:24:03;100116.56;;;16.33
51149;BMP280;37210;50.058;8.688;2022-10-14T08:26:47;100116.00;;;16.55
51149;BMP280;37210;50.058;8.688;2022-10-14T08:29:27;100113.47;;;16.51
51149;BMP280;37210;50.058;8.688;2022-10-14T08:31:59;100067.28;;;15.98
51149;BMP280;37210;50.058;8.688;2022-10-14T08:34:30;100106.31;;;16.21
51149;BMP280;37210;50.058;8.688;2022-10-14T08:37:00;100112.22;;;16.30
51149;BMP280;37210;50.058;8.688;2022-10-14T08:39:34;100063.41;;;16.13
51149;BMP280;37210;50.058;8.688;2022-10-14T08:42:34;100085.34;;;16.15
51149;BMP280;37210;50.058;8.688;2022-10-14T08:45:28;100101.56;;;16.68
51149;BMP280;37210;50.058;8.688;2022-10-14T08:48:10;100100.75;;;16.65
51149;BMP280;37210;50.058;8.688;2022-10-14T08:51:09;99989.63;;;16.10
51149;BMP280;37210;50.058;8.688;2022-10-14T08:53:43;100066.00;;;16.48
51149;BMP280;37210;50.058;8.688;2022-10-14T08:56:18;100087.31;;;16.74
51149;BMP280;37210;50.058;8.688;2022-10-14T08:58:49;100099.19;;;16.90
51149;BMP280;37210;50.058;8.688;2022-10-14T09:01:25;100087.38;;;16.71
51149;BMP280;37210;50.058;8.688;2022-10-14T09:03:57;100022.91;;;16.47
51149;BMP280;37210;50.058;8.688;2022-10-14T09:06:28;100104.47;;;16.90
51149;BMP280;37210;50.058;8.688;2022-10-14T09:09:05;100103.66;;;16.88
51149;BMP280;37210;50.058;8.688;2022-10-14T09:11:38;99973.00;;;16.06
51149;BMP280;37210;50.058;8.688;2022-10-14T09:14:14;100094.47;;;17.01
51149;BMP280;37210;50.058;8.688;2022-10-14T09:16:53;100079.44;;;16.72
51149;BMP280;37210;50.058;8.688;2022-10-14T09:19:31;100086.31;;;17.09
51149;BMP280;37210;50.058;8.688;2022-10-14T09:22:00;100091.47;;;17.13
51149;BMP280;37210;50.058;8.688;2022-10-14T09:24:30;100094.75;;;17.23
51149;BMP280;37210;50.058;8.688;2022-10-14T09:27:04;100088.66;;;16.89
51149;BMP280;37210;50.058;8.688;2022-10-14T09:29:36;100084.25;;;17.20
51149;BMP280;37210;50.058;8.688;2022-10-14T09:32:11;100074.66;;;17.16
51149;BMP280;37210;50.058;8.688;2022-10-14T09:34:45;100047.81;;;17.00
51149;BMP280;37210;50.058;8.688;2022-10-14T09:37:22;100060.63;;;17.14
51149;BMP280;37210;50.058;8.688;2022-10-14T09:39:55;100050.31;;;17.06
51149;BMP280;37210;50.058;8.688;2022-10-14T09:42:27;100027.28;;;17.10
51149;BMP280;37210;50.058;8.688;2022-10-14T09:45:22;100042.09;;;17.15
51149;BMP280;37210;50.058;8.688;2022-10-14T09:47:56;100020.13;;;16.84
51149;BMP280;37210;50.058;8.688;2022-10-14T09:50:35;100021.38;;;17.02
51149;BMP280;37210;50.058;8.688;2022-10-14T09:53:13;100048.38;;;17.11
51149;BMP280;37210;50.058;8.688;2022-10-14T09:55:46;99996.47;;;17.09
51149;BMP280;37210;50.058;8.688;2022-10-14T09:58:26;100011.16;;;16.90
51149;BMP280;37210;50.058;8.688;2022-10-14T10:00:59;99996.34;;;16.84
51149;BMP280;37210;50.058;8.688;2022-10-14T10:03:31;99910.94;;;16.54
51149;BMP280;37210;50.058;8.688;2022-10-14T10:06:05;100012.16;;;17.42
51149;BMP280;37210;50.058;8.688;2022-10-14T10:08:37;99991.97;;;17.40
51149;BMP280;37210;50.058;8.688;2022-10-14T10:11:08;99988.03;;;17.25
51149;BMP280;37210;50.058;8.688;2022-10-14T10:13:43;100015.38;;;17.53
51149;BMP280;37210;50.058;8.688;2022-10-14T10:16:20;100000.84;;;17.67
51149;BMP280;37210;50.058;8.688;2022-10-14T10:18:54;99998.69;;;17.78
51149;BMP280;37210;50.058;8.688;2022-10-14T10:21:24;100007.66;;;17.74
51149;BMP280;37210;50.058;8.688;2022-10-14T10:23:55;99986.94;;;17.86
51149;BMP280;37210;50.058;8.688;2022-10-14T10:26:26;99993.66;;;17.96
51149;BMP280;37210;50.058;8.688;2022-10-14T10:28:57;100002.69;;;17.91
51149;BMP280;37210;50.058;8.688;2022-10-14T10:31:41;100006.19;;;17.91
51149;BMP280;37210;50.058;8.688;2022-10-14T10:34:36;100003.88;;;18.07
51149;BMP280;37210;50.058;8.688;2022-10-14T10:37:25;100007.91;;;17.92
51149;BMP280;37210;50.058;8.688;2022-10-14T10:40:11;100005.09;;;17.97
51149;BMP280;37210;50.058;8.688;2022-10-14T10:43:06;99942.53;;;17.70
51149;BMP280;37210;50.058;8.688;2022-10-14T10:45:57;99988.34;;;17.96
51149;BMP280;37210;50.058;8.688;2022-10-14T10:48:39;99960.97;;;17.73
51149;BMP280;37210;50.058;8.688;2022-10-14T10:51:18;99998.09;;;17.96
51149;BMP280;37210;50.058;8.688;2022-10-14T10:54:04;99957.59;;;17.94
51149;BMP280;37210;50.058;8.688;2022-10-14T10:56:40;99990.78;;;18.28
51149;BMP280;37210;50.058;8.688;2022-10-14T10:59:27;99940.31;;;18.08
51149;BMP280;37210;50.058;8.688;2022-10-14T11:02:36;99982.81;;;18.28
51149;BMP280;37210;50.058;8.688;2022-10-14T11:05:28;99973.13;;;18.04
51149;BMP280;37210;50.058;8.688;2022-10-14T11:08:33;99941.72;;;18.18
51149;BMP280;37210;50.058;8.688;2022-10-14T11:11:28;99868.41;;;17.71
51149;BMP280;37210;50.058;8.688;2022-10-14T11:14:27;99958.50;;;18.17
51149;BMP280;37210;50.058;8.688;2022-10-14T11:17:09;99968.94;;;18.22
51149;BMP280;37210;50.058;8.688;2022-10-14T11:19:51;99964.69;;;18.18
51149;BMP280;37210;50.058;8.688;2022-10-14T11:22:35;99969.25;;;18.13
51149;BMP280;37210;50.058;8.688;2022-10-14T11:25:21;99934.63;;;17.94
51149;BMP280;37210;50.058;8.688;2022-10-14T11:28:03;99968.47;;;17.85
51149;BMP280;37210;50.058;8.688;2022-10-14T11:30:44;99956.28;;;17.81
51149;BMP280;37210;50.058;8.688;2022-10-14T11:33:45;99955.72;;;17.71
51149;BMP280;37210;50.058;8.688;2022-10-14T11:36:28;99927.00;;;17.61
51149;BMP280;37210;50.058;8.688;2022-10-14T11:39:11;99946.41;;;17.60
51149;BMP280;37210;50.058;8.688;2022-10-14T11:41:58;99933.78;;;17.68
51149;BMP280;37210;50.058;8.688;2022-10-14T11:44:37;99934.72;;;17.67
51149;BMP280;37210;50.058;8.688;2022-10-14T11:47:11;99887.50;;;17.54
51149;BMP280;37210;50.058;8.688;2022-10-14T11:49:47;99909.41;;;17.84
51149;BMP280;37210;50.058;8.688;2022-10-14T11:52:25;99925.94;;;17.91
51149;BMP280;37210;50.058;8.688;2022-10-14T11:55:00;99921.72;;;17.85
51149;BMP280;37210;50.058;8.688;2022-10-14T11:57:34;99896.41;;;17.78
51149;BMP280;37210;50.058;8.688;2022-10-14T12:00:11;99914.81;;;18.06
51149;BMP280;37210;50.058;8.688;2022-10-14T12:02:46;99912.19;;;18.06
51149;BMP280;37210;50.058;8.688;2022-10-14T12:05:22;99815.09;;;17.58
51149;BMP280;37210;50.058;8.688;2022-10-14T12:08:08;99860.38;;;17.74
51149;BMP280;37210;50.058;8.688;2022-10-14T12:10:50;99897.19;;;17.55
51149;BMP280;37210;50.058;8.688;2022-10-14T12:13:30;99881.19;;;17.85
51149;BMP280;37210;50.058;8.688;2022-10-14T12:16:02;99835.19;;;17.12
51149;BMP280;37210;50.058;8.688;2022-10-14T12:18:33;99861.78;;;17.33
51149;BMP280;37210;50.058;8.688;2022-10-14T12:21:07;99899.78;;;17.29
51149;BMP280;37210;50.058;8.688;2022-10-14T12:23:47;99894.88;;;17.45
51149;BMP280;37210;50.058;8.688;2022-10-14T12:26:36;99896.16;;;17.33
51149;BMP280;37210;50.058;8.688;2022-10-14T12:29:15;99890.75;;;17.36
51149;BMP280;37210;50.058;8.688;2022-10-14T12:32:04;99834.94;;;16.93
51149;BMP280;37210;50.058;8.688;2022-10-14T12:34:35;99862.16;;;17.21
51149;BMP280;37210;50.058;8.688;2022-10-14T12:40:30;99880.91;;;17.41
51149;BMP280;37210;50.058;8.688;2022-10-14T12:43:13;99875.00;;;17.33
51149;BMP280;37210;50.058;8.688;2022-10-14T12:46:11;99877.31;;;17.16
51149;BMP280;37210;50.058;8.688;2022-10-14T12:48:46;99852.63;;;17.17
51149;BMP280;37210;50.058;8.688;2022-10-14T12:51:18;99874.06;;;17.34
51149;BMP280;37210;50.058;8.688;2022-10-14T12:53:51;99876.03;;;17.02
51149;BMP280;37210;50.058;8.688;2022-10-14T12:56:36;99879.16;;;17.14
51149;BMP280;37210;50.058;8.688;2022-10-14T12:59:19;99808.19;;;16.76
51149;BMP280;37210;50.058;8.688;2022-10-14T13:01:56;99875.34;;;17.23
51149;BMP280;37210;50.058;8.688;2022-10-14T13:04:26;99873.19;;;17.34
51149;BMP280;37210;50.058;8.688;2022-10-14T13:07:28;99879.41;;;17.33
51149;BMP280;37210;50.058;8.688;2022-10-14T13:10:26;99876.66;;;17.10
51149;BMP280;37210;50.058;8.688;2022-10-14T13:13:46;99874.72;;;17.15
51149;BMP280;37210;50.058;8.688;2022-10-14T13:19:53;99836.25;;;17.06
51149;BMP280;37210;50.058;8.688;2022-10-14T13:22:40;99857.53;;;17.02
51149;BMP280;37210;50.058;8.688;2022-10-14T13:25:17;99855.31;;;17.16
51149;BMP280;37210;50.058;8.688;2022-10-14T13:28:07;99864.72;;;17.24
51149;BMP280;37210;50.058;8.688;2022-10-14T13:30:54;99831.31;;;16.96
51149;BMP280;37210;50.058;8.688;2022-10-14T13:33:36;99834.88;;;16.95
51149;BMP280;37210;50.058;8.688;2022-10-14T13:36:16;99820.41;;;17.06
51149;BMP280;37210;50.058;8.688;2022-10-14T13:38:52;99836.53;;;17.23
51149;BMP280;37210;50.058;8.688;2022-10-14T13:41:25;99801.25;;;17.00
51149;BMP280;37210;50.058;8.688;2022-10-14T13:44:03;99750.69;;;16.84
51149;BMP280;37210;50.058;8.688;2022-10-14T13:46:34;99828.88;;;17.16
51149;BMP280;37210;50.058;8.688;2022-10-14T13:49:14;99809.44;;;17.18
51149;BMP280;37210;50.058;8.688;2022-10-14T13:51:49;99827.31;;;17.10
51149;BMP280;37210;50.058;8.688;2022-10-14T13:54:21;99827.41;;;17.07
51149;BMP280;37210;50.058;8.688;2022-10-14T13:57:01;99807.28;;;17.03
51149;BMP280;37210;50.058;8.688;2022-10-14T13:59:35;99811.19;;;17.18
51149;BMP280;37210;50.058;8.688;2022-10-14T14:02:10;99807.00;;;17.12
51149;BMP280;37210;50.058;8.688;2022-10-14T14:04:47;99791.91;;;16.90
51149;BMP280;37210;50.058;8.688;2022-10-14T14:07:19;99776.00;;;16.91
51149;BMP280;37210;50.058;8.688;2022-10-14T14:09:53;99818.66;;;17.05
51149;BMP280;37210;50.058;8.688;2022-10-14T14:12:27;99798.06;;;17.15
51149;BMP280;37210;50.058;8.688;2022-10-14T14:14:57;99808.66;;;17.15
51149;BMP280;37210;50.058;8.688;2022-10-14T14:17:27;99810.13;;;17.23
51149;BMP280;37210;50.058;8.688;2022-10-14T14:19:58;99781.50;;;16.84
51149;BMP280;37210;50.058;8.688;2022-10-14T14:22:29;99801.53;;;17.17
51149;BMP280;37210;50.058;8.688;2022-10-14T14:25:10;99722.56;;;16.83
51149;BMP280;37210;50.058;8.688;2022-10-14T14:27:46;99622.69;;;16.16
51149;BMP280;37210;50.058;8.688;2022-10-14T14:30:26;99783.75;;;17.22
51149;BMP280;37210;50.058;8.688;2022-10-14T14:32:57;99784.63;;;17.22
51149;BMP280;37210;50.058;8.688;2022-10-14T14:35:28;99785.38;;;17.26
51149;BMP280;37210;50.058;8.688;2022-10-14T14:37:56;99779.94;;;17.30
51149;BMP280;37210;50.058;8.688;2022-10-14T14:40:25;99768.25;;;17.37
51149;BMP280;37210;50.058;8.688;2022-10-14T14:42:57;99769.94;;;17.38
51149;BMP280;37210;50.058;8.688;2022-10-14T14:45:28;99744.78;;;17.53
51149;BMP280;37210;50.058;8.688;2022-10-14T14:48:02;99740.59;;;17.46
51149;BMP280;37210;50.058;8.688;2022-10-14T14:50:35;99743.00;;;17.27
51149;BMP280;37210;50.058;8.688;2022-10-14T14:53:10;99739.91;;;17.41